Weather at Belwood (Baird Field)

Public forecast

Using degrees Celsius for public forecast. Weather courtesy of forecast.io.

Closest aviation weather report (METAR) to Belwood (Baird Field)

Closest report is Waterloo Airport, 21.1 nm (39.0 km) S. Retrieved 2020/11/24 00:00 UTC (24 minutes ago):

CYKF 240000Z AUTO 29011G17KT 9SM SCT019 01/M02 A3021 RMK SLP244

Closest aviation forecast (TAF) to Belwood (Baird Field)

Closest forecast is Waterloo Airport, 21.1 nm (39.0 km) S. Retrieved 2020/11/23 20:42 UTC (4 hours ago):

TAF CYKF 231939Z 2320/2408 27015KT P6SM -SHRA BKN030 TEMPO 2320/2324 3SM -SHSN OVC012 FM240000 30012KT P6SM BKN025 TEMPO 2400/2408 OVC020 RMK FCST BASED ON AUTO OBS NXT FCST BY 240200Z